Time;durP1;ratioP1;P1;durP2;ratioP2;P2;SDS_P1;SDS_P2;PMS_P1;PMS_P2;Temp;Humidity;BMP_temperature;BMP_pressure;BME280_temperature;BME280_humidity;BME280_pressure;Samples;Min_cycle;Max_cycle;Signal;HPM_P1;HPM_P2
2022/10/01 00:01:03;;;;;;;11.82;5.18;;;11.60;99.90;;;;;;6066117;23;20421;-88
2022/10/01 00:03:30;;;;;;;12.30;5.65;;;11.60;99.90;;;;;;6065516;23;20022;-88
2022/10/01 00:06:01;;;;;;;10.43;5.90;;;11.80;99.90;;;;;;6042820;23;20054;-88
2022/10/01 00:08:28;;;;;;;9.75;5.20;;;11.50;99.90;;;;;;6042290;23;20460;-88
2022/10/01 00:10:54;;;;;;;9.80;5.47;;;11.50;99.90;;;;;;6065233;23;20321;-88
2022/10/01 00:13:20;;;;;;;9.48;5.82;;;11.50;99.90;;;;;;6066281;23;20023;-89
2022/10/01 00:15:46;;;;;;;11.35;5.57;;;11.50;99.90;;;;;;6018161;23;20014;-88
2022/10/01 00:18:12;;;;;;;10.48;6.00;;;11.50;99.90;;;;;;6042204;23;20025;-89
2022/10/01 00:20:42;;;;;;;10.60;6.20;;;11.40;99.90;;;;;;6066125;23;20091;-87
2022/10/01 00:23:12;;;;;;;12.55;6.15;;;11.40;99.90;;;;;;6042626;23;20046;-88
2022/10/01 00:25:38;;;;;;;10.68;6.38;;;11.40;99.90;;;;;;6066713;23;20018;-88
2022/10/01 00:28:04;;;;;;;10.43;6.18;;;12.00;99.90;;;;;;6019242;23;20018;-87
2022/10/01 00:30:30;;;;;;;11.50;6.18;;;11.40;99.90;;;;;;6039845;23;20042;-87
2022/10/01 00:32:56;;;;;;;10.95;6.38;;;11.30;99.90;;;;;;6042860;23;20026;-87
2022/10/01 00:35:22;;;;;;;9.90;5.78;;;11.60;99.90;;;;;;6018632;23;20047;-87
2022/10/01 00:37:51;;;;;;;10.35;6.18;;;11.30;99.90;;;;;;6041278;23;20029;-88
2022/10/01 00:40:18;;;;;;;13.57;6.63;;;11.30;99.90;;;;;;6042143;23;20551;-89
2022/10/01 00:42:44;;;;;;;10.52;6.90;;;11.40;99.90;;;;;;6066500;23;20014;-88
2022/10/01 00:45:12;;;;;;;14.07;6.82;;;11.30;99.90;;;;;;6064994;23;20050;-88
2022/10/01 00:47:49;;;;;;;12.25;6.55;;;11.20;99.90;;;;;;6042683;23;20019;-87
2022/10/01 00:50:21;;;;;;;11.73;7.25;;;11.40;99.90;;;;;;6041015;23;20069;-90
2022/10/01 00:52:51;;;;;;;10.63;6.70;;;11.20;99.90;;;;;;6042364;23;20040;-91
2022/10/01 00:55:25;;;;;;;12.18;7.18;;;11.20;99.90;;;;;;6042095;23;20015;-90
2022/10/01 00:57:53;;;;;;;12.00;7.00;;;11.20;99.90;;;;;;6042038;23;20025;-88
2022/10/01 01:00:20;;;;;;;13.52;7.00;;;11.20;99.90;;;;;;6065838;23;20010;-87
2022/10/01 01:02:46;;;;;;;11.73;7.20;;;11.30;99.90;;;;;;6066957;23;20018;-88
2022/10/01 01:05:12;;;;;;;12.43;7.18;;;11.20;99.90;;;;;;6042022;23;20021;-87
2022/10/01 01:07:43;;;;;;;12.40;7.47;;;11.20;99.90;;;;;;6041529;23;20078;-87
2022/10/01 01:10:09;;;;;;;13.50;7.70;;;11.40;99.90;;;;;;6065722;23;20085;-88
2022/10/01 01:12:40;;;;;;;13.00;6.82;;;11.20;99.90;;;;;;6042883;23;20099;-87
2022/10/01 01:15:26;;;;;;;12.45;6.88;;;11.20;99.90;;;;;;6043927;23;20018;-88
2022/10/01 01:18:04;;;;;;;11.68;7.13;;;11.20;99.90;;;;;;6068447;23;20056;-87
2022/10/01 01:20:39;;;;;;;12.30;6.50;;;11.20;99.90;;;;;;6042640;23;20089;-86
2022/10/01 01:23:13;;;;;;;12.93;7.03;;;11.20;99.90;;;;;;6043507;23;20011;-90
2022/10/01 01:26:30;;;;;;;13.70;7.78;;;11.20;99.90;;;;;;6043832;23;20341;-87
2022/10/01 01:29:08;;;;;;;12.75;7.30;;;11.20;99.90;;;;;;6034139;23;20021;-88
2022/10/01 01:31:38;;;;;;;11.15;6.70;;;11.20;99.90;;;;;;6091917;23;20094;-87
2022/10/01 01:34:12;;;;;;;13.65;7.13;;;11.20;99.90;;;;;;6043959;23;20456;-88
2022/10/01 01:36:43;;;;;;;10.93;6.32;;;11.10;99.90;;;;;;6043589;23;20022;-86
2022/10/01 01:39:12;;;;;;;11.88;6.65;;;11.20;99.90;;;;;;6066866;23;20017;-86
2022/10/01 01:41:48;;;;;;;12.52;6.68;;;11.80;99.90;;;;;;6042897;23;20017;-87
2022/10/01 01:44:18;;;;;;;14.55;7.38;;;11.10;99.90;;;;;;6067392;23;20014;-86
2022/10/01 01:46:48;;;;;;;13.02;7.18;;;11.10;99.90;;;;;;6044032;23;20348;-86
2022/10/01 01:49:19;;;;;;;11.52;6.85;;;11.10;99.90;;;;;;6067192;23;20014;-87
2022/10/01 01:51:58;;;;;;;12.32;7.50;;;11.30;99.90;;;;;;6068127;23;20019;-87
2022/10/01 01:54:24;;;;;;;11.55;6.88;;;11.10;99.90;;;;;;6067914;23;20049;-87
2022/10/01 01:56:51;;;;;;;11.35;6.95;;;11.10;99.90;;;;;;6042947;23;20017;-87
2022/10/01 01:59:18;;;;;;;11.40;6.15;;;11.00;99.90;;;;;;6042668;23;20015;-85
2022/10/01 02:01:44;;;;;;;10.52;6.47;;;11.00;99.90;;;;;;6067195;23;20014;-86
2022/10/01 02:04:25;;;;;;;12.55;6.70;;;11.10;99.90;;;;;;6042953;23;20014;-87
2022/10/01 02:07:00;;;;;;;12.80;7.45;;;11.10;99.90;;;;;;6042771;23;20018;-87
2022/10/01 02:09:38;;;;;;;10.70;6.45;;;11.10;99.90;;;;;;6043513;23;20347;-87
2022/10/01 02:12:19;;;;;;;11.07;6.28;;;10.90;99.90;;;;;;6043490;23;20014;-87
2022/10/01 02:14:55;;;;;;;11.05;6.13;;;11.10;99.90;;;;;;6043369;23;20018;-86
2022/10/01 02:17:43;;;;;;;10.63;6.05;;;11.10;99.90;;;;;;6042979;23;20348;-86
2022/10/01 02:20:31;;;;;;;11.20;6.45;;;11.10;99.90;;;;;;6067490;23;20021;-86
2022/10/01 02:23:22;;;;;;;12.35;7.07;;;11.10;99.90;;;;;;6043223;23;20026;-86
2022/10/01 02:25:53;;;;;;;10.88;6.05;;;11.10;99.90;;;;;;6066493;23;20023;-86
2022/10/01 02:28:22;;;;;;;11.73;6.10;;;11.10;99.90;;;;;;6067885;23;20439;-86
2022/10/01 02:30:50;;;;;;;11.55;6.22;;;11.10;99.90;;;;;;6043235;23;20026;-88
2022/10/01 02:33:22;;;;;;;10.45;5.43;;;11.10;99.90;;;;;;6067160;23;20054;-86
2022/10/01 02:35:48;;;;;;;11.27;5.75;;;11.50;99.90;;;;;;6066798;23;20164;-86
2022/10/01 02:38:15;;;;;;;10.45;5.30;;;11.20;99.90;;;;;;6019736;23;20025;-87
2022/10/01 02:40:44;;;;;;;10.57;5.68;;;11.10;99.90;;;;;;6043739;23;20072;-87
2022/10/01 02:43:26;;;;;;;9.38;5.10;;;11.30;99.90;;;;;;6043416;23;20449;-87
2022/10/01 02:45:57;;;;;;;12.00;5.30;;;11.10;99.90;;;;;;6067279;23;20050;-86
2022/10/01 02:48:23;;;;;;;11.07;5.82;;;11.10;99.90;;;;;;6043410;23;20591;-85
2022/10/01 02:50:52;;;;;;;11.00;5.53;;;11.10;99.90;;;;;;6066228;23;20046;-86
2022/10/01 02:53:36;;;;;;;10.77;5.35;;;11.10;99.90;;;;;;6067176;23;20077;-88
2022/10/01 02:56:03;;;;;;;10.60;5.20;;;11.10;99.90;;;;;;6043540;23;20019;-86
2022/10/01 02:58:29;;;;;;;9.63;5.10;;;11.10;99.90;;;;;;6018602;23;20550;-87
2022/10/01 03:00:54;;;;;;;9.77;5.10;;;11.10;99.90;;;;;;6042074;23;20022;-86
2022/10/01 03:03:20;;;;;;;8.88;4.78;;;11.10;99.90;;;;;;6042400;23;20014;-87
2022/10/01 03:05:46;;;;;;;11.07;5.25;;;11.10;99.90;;;;;;6043524;23;20026;-86
2022/10/01 03:08:11;;;;;;;8.70;4.38;;;11.10;99.90;;;;;;6066822;23;20066;-87
2022/10/01 03:10:37;;;;;;;9.27;4.60;;;11.20;99.90;;;;;;6043407;23;20026;-86
2022/10/01 03:13:06;;;;;;;9.73;4.95;;;11.20;99.90;;;;;;6066072;23;20027;-88
2022/10/01 03:15:32;;;;;;;9.18;4.70;;;11.20;99.90;;;;;;6020650;23;20049;-88
2022/10/01 03:17:57;;;;;;;8.35;4.20;;;11.20;99.90;;;;;;6042391;23;20022;-87
2022/10/01 03:20:24;;;;;;;9.93;4.80;;;11.20;99.90;;;;;;6066830;23;20348;-87
2022/10/01 03:22:49;;;;;;;8.95;4.47;;;11.20;99.90;;;;;;6042124;23;20089;-87
2022/10/01 03:25:16;;;;;;;8.73;4.63;;;11.20;99.90;;;;;;6019099;23;20132;-88
2022/10/01 03:27:42;;;;;;;8.80;4.60;;;11.20;99.90;;;;;;6043043;23;20174;-88
2022/10/01 03:30:09;;;;;;;9.25;4.53;;;11.20;99.90;;;;;;6041514;23;20019;-87
2022/10/01 03:32:35;;;;;;;8.52;4.32;;;11.20;99.90;;;;;;6066879;23;20322;-88
2022/10/01 03:35:00;;;;;;;9.80;4.95;;;11.20;99.90;;;;;;6041151;23;20025;-89
2022/10/01 03:37:26;;;;;;;8.20;4.10;;;11.20;99.90;;;;;;6043124;23;20022;-88
2022/10/01 03:39:52;;;;;;;8.60;4.30;;;11.40;99.90;;;;;;6065234;23;20053;-88
2022/10/01 03:42:17;;;;;;;9.18;4.82;;;11.30;99.90;;;;;;6018193;23;20014;-89
2022/10/01 03:44:43;;;;;;;9.00;4.50;;;11.30;99.90;;;;;;6042030;23;20029;-89
2022/10/01 03:47:09;;;;;;;9.18;4.03;;;11.40;99.90;;;;;;6042534;23;20018;-87
2022/10/01 03:49:35;;;;;;;8.70;4.20;;;11.30;99.90;;;;;;6067051;23;20013;-88
2022/10/01 03:52:03;;;;;;;8.60;3.92;;;11.40;99.90;;;;;;6067029;23;20050;-87
2022/10/01 03:54:32;;;;;;;8.55;3.78;;;11.30;99.90;;;;;;6043315;23;20014;-87
2022/10/01 03:56:58;;;;;;;7.70;3.35;;;12.20;99.90;;;;;;6020087;23;20050;-88
2022/10/01 03:59:26;;;;;;;8.07;3.53;;;11.40;99.90;;;;;;6042134;23;20018;-88
2022/10/01 04:01:52;;;;;;;8.73;3.70;;;11.30;99.90;;;;;;6042505;23;20010;-87
2022/10/01 04:04:18;;;;;;;7.40;2.90;;;11.40;99.90;;;;;;6042312;23;20447;-89
2022/10/01 04:06:44;;;;;;;7.40;3.40;;;11.40;99.90;;;;;;6043215;23;20404;-87
2022/10/01 04:09:09;;;;;;;7.75;3.15;;;11.40;99.90;;;;;;6066875;23;20018;-88
2022/10/01 04:11:35;;;;;;;6.80;2.90;;;11.40;99.90;;;;;;5995436;23;20089;-88
2022/10/01 04:14:01;;;;;;;7.38;3.03;;;11.40;99.90;;;;;;6042881;23;20018;-89
2022/10/01 04:16:27;;;;;;;8.80;3.00;;;11.40;99.90;;;;;;6041983;23;20018;-88
2022/10/01 04:18:53;;;;;;;6.80;2.78;;;11.40;99.90;;;;;;6042379;23;20029;-88
2022/10/01 04:21:19;;;;;;;6.57;2.70;;;11.50;99.90;;;;;;6066677;23;20010;-87
2022/10/01 04:23:45;;;;;;;6.32;2.50;;;11.50;99.90;;;;;;6067174;23;20352;-88
2022/10/01 04:26:11;;;;;;;7.45;3.10;;;11.50;99.90;;;;;;6041076;23;20053;-87
2022/10/01 04:28:36;;;;;;;7.15;2.60;;;11.50;99.90;;;;;;6042504;23;20037;-89
2022/10/01 04:33:47;;;;;;;7.63;2.92;;;11.50;99.90;;;;;;6045885;23;20026;-89
2022/10/01 04:36:13;;;;;;;6.75;2.70;;;11.50;99.90;;;;;;6065944;23;20563;-88
2022/10/01 04:38:38;;;;;;;5.80;2.30;;;11.50;99.90;;;;;;6042647;23;20476;-87
2022/10/01 04:41:04;;;;;;;5.93;2.45;;;11.70;99.90;;;;;;6042535;23;20172;-87
2022/10/01 04:43:30;;;;;;;6.45;2.40;;;11.50;99.90;;;;;;6067046;23;20021;-87
2022/10/01 04:45:56;;;;;;;6.18;2.33;;;11.60;99.90;;;;;;6042409;23;20019;-88
2022/10/01 04:48:21;;;;;;;6.28;2.05;;;11.70;99.90;;;;;;6020088;23;20356;-89
2022/10/01 04:50:47;;;;;;;7.65;2.50;;;11.60;99.90;;;;;;6044071;23;20054;-86
2022/10/01 04:53:13;;;;;;;6.60;2.45;;;11.60;99.90;;;;;;6067069;23;20018;-88
2022/10/01 04:55:38;;;;;;;6.20;2.53;;;11.60;99.90;;;;;;6044457;23;20061;-88
2022/10/01 04:58:04;;;;;;;7.35;2.72;;;11.60;99.90;;;;;;6044354;23;20043;-88
2022/10/01 05:00:30;;;;;;;7.95;2.75;;;11.60;99.90;;;;;;6067833;23;20014;-89
2022/10/01 05:02:55;;;;;;;7.00;2.70;;;11.60;99.90;;;;;;6043892;23;20337;-89
2022/10/01 05:05:23;;;;;;;6.35;2.78;;;11.60;99.90;;;;;;6067548;23;20449;-87
2022/10/01 05:07:49;;;;;;;6.43;2.63;;;11.60;99.90;;;;;;6044700;23;20057;-86
2022/10/01 05:10:18;;;;;;;7.70;2.90;;;11.90;99.90;;;;;;6043805;23;20014;-87
2022/10/01 05:12:45;;;;;;;7.85;2.85;;;11.70;99.90;;;;;;6044340;23;20359;-89
2022/10/01 05:15:11;;;;;;;7.03;3.00;;;11.70;99.90;;;;;;6066731;23;21020;-86
2022/10/01 05:17:37;;;;;;;8.73;2.97;;;11.70;99.90;;;;;;6044379;23;20098;-88
2022/10/01 05:20:04;;;;;;;7.53;3.00;;;11.70;99.90;;;;;;6043467;23;20048;-88
2022/10/01 05:22:30;;;;;;;7.70;3.10;;;11.70;99.90;;;;;;6067134;23;20058;-87
2022/10/01 05:24:59;;;;;;;6.78;2.80;;;11.70;99.90;;;;;;6066899;23;20014;-87
2022/10/01 05:27:29;;;;;;;6.72;2.80;;;11.70;99.90;;;;;;6067841;23;20025;-89
2022/10/01 05:29:55;;;;;;;7.15;2.80;;;11.80;99.90;;;;;;6066979;23;20015;-88
2022/10/01 05:32:22;;;;;;;7.90;3.08;;;11.80;99.90;;;;;;6044188;23;20061;-88
2022/10/01 05:34:47;;;;;;;7.57;2.70;;;11.50;99.90;;;;;;6042518;23;20014;-88
2022/10/01 05:37:14;;;;;;;9.00;3.42;;;12.30;99.90;;;;;;6043514;23;20022;-87
2022/10/01 05:39:40;;;;;;;7.43;3.17;;;11.80;99.90;;;;;;6043898;23;20049;-87
2022/10/01 05:42:06;;;;;;;7.35;3.30;;;11.80;99.90;;;;;;6042892;23;20425;-88
2022/10/01 05:44:36;;;;;;;7.15;2.92;;;11.80;99.90;;;;;;6043231;23;20021;-88
2022/10/01 05:47:04;;;;;;;7.47;3.15;;;11.80;99.90;;;;;;6040789;23;20452;-87
2022/10/01 05:49:30;;;;;;;8.15;3.08;;;11.90;99.90;;;;;;6042290;23;20467;-88
2022/10/01 05:51:55;;;;;;;7.60;3.47;;;11.90;99.90;;;;;;6041866;23;20029;-88
2022/10/01 05:54:22;;;;;;;8.18;3.55;;;12.10;99.90;;;;;;6018951;23;20437;-88
2022/10/01 05:56:49;;;;;;;11.45;4.07;;;12.00;99.90;;;;;;6043101;23;20021;-88
2022/10/01 05:59:15;;;;;;;9.02;3.60;;;11.90;99.90;;;;;;6042558;23;20097;-88
2022/10/01 06:01:41;;;;;;;9.30;3.90;;;12.00;99.90;;;;;;6019125;23;20495;-88
2022/10/01 06:04:09;;;;;;;8.38;3.58;;;12.00;99.90;;;;;;6043039;23;20036;-89
2022/10/01 06:06:35;;;;;;;10.40;3.60;;;12.00;99.90;;;;;;6066414;23;20053;-88
2022/10/01 06:09:00;;;;;;;8.35;4.10;;;12.00;99.90;;;;;;6043536;23;20025;-88
2022/10/01 06:11:26;;;;;;;9.48;3.78;;;12.00;99.90;;;;;;6043441;23;20033;-88
2022/10/01 06:13:52;;;;;;;9.23;4.07;;;12.00;99.90;;;;;;6044224;23;20014;-88
2022/10/01 06:16:19;;;;;;;8.40;3.67;;;12.00;99.90;;;;;;6066679;23;20337;-88
2022/10/01 06:18:46;;;;;;;7.72;3.70;;;12.10;99.90;;;;;;6067184;23;20026;-89
2022/10/01 06:21:12;;;;;;;9.32;4.30;;;12.10;99.90;;;;;;6043041;23;20045;-87
2022/10/01 06:23:37;;;;;;;7.90;3.88;;;12.20;99.90;;;;;;6019514;23;20085;-87
2022/10/01 06:26:04;;;;;;;9.77;4.50;;;12.20;99.90;;;;;;6044619;23;20014;-87
2022/10/01 06:28:31;;;;;;;10.13;4.68;;;12.20;99.90;;;;;;6067826;23;20018;-87
2022/10/01 06:31:00;;;;;;;9.68;4.00;;;12.30;99.90;;;;;;6043343;23;20018;-88
2022/10/01 06:33:26;;;;;;;9.98;4.22;;;12.30;99.90;;;;;;6066135;23;20065;-88
2022/10/01 06:35:52;;;;;;;11.60;4.70;;;12.30;99.90;;;;;;6039520;23;20046;-90
2022/10/01 06:38:20;;;;;;;9.05;4.65;;;12.30;99.90;;;;;;6040616;23;20022;-89
2022/10/01 06:40:52;;;;;;;8.82;4.22;;;12.30;99.90;;;;;;6067893;23;20014;-87
2022/10/01 06:43:17;;;;;;;9.40;4.50;;;12.40;99.90;;;;;;6043219;23;20483;-88
2022/10/01 06:45:43;;;;;;;11.23;4.50;;;12.70;99.90;;;;;;6043288;23;20022;-89
2022/10/01 06:48:13;;;;;;;10.10;4.35;;;12.60;99.90;;;;;;6018591;23;20018;-88
2022/10/01 06:50:40;;;;;;;9.90;4.65;;;12.30;99.90;;;;;;6043860;23;20060;-90
2022/10/01 06:53:06;;;;;;;10.55;4.75;;;12.40;99.90;;;;;;6041813;23;20014;-88
2022/10/01 06:55:33;;;;;;;12.15;4.72;;;12.40;99.90;;;;;;6065771;23;20089;-88
2022/10/01 06:58:11;;;;;;;12.43;4.65;;;12.40;99.90;;;;;;6042481;23;20019;-89
2022/10/01 07:00:37;;;;;;;10.90;4.32;;;12.50;99.90;;;;;;6066694;23;20010;-88
2022/10/01 07:03:09;;;;;;;11.30;5.25;;;12.50;99.90;;;;;;6042412;23;20093;-90
2022/10/01 07:05:38;;;;;;;12.20;5.27;;;12.60;99.90;;;;;;6068152;23;20104;-90
2022/10/01 07:08:04;;;;;;;10.52;4.88;;;12.60;99.90;;;;;;6067023;23;20111;-90
2022/10/01 07:10:31;;;;;;;10.43;5.10;;;13.20;99.90;;;;;;6042402;23;20486;-88
2022/10/01 07:13:06;;;;;;;11.85;5.40;;;12.90;99.90;;;;;;6041797;23;20018;-89
2022/10/01 07:15:32;;;;;;;11.80;5.38;;;12.90;99.90;;;;;;6042564;23;20045;-91
2022/10/01 07:17:58;;;;;;;11.30;5.38;;;13.00;99.90;;;;;;6044535;23;20014;-88
2022/10/01 07:20:23;;;;;;;10.90;5.50;;;13.00;99.90;;;;;;6044109;23;20018;-88
2022/10/01 07:22:56;;;;;;;10.70;5.60;;;13.10;99.90;;;;;;6018025;23;20014;-87
2022/10/01 07:25:22;;;;;;;12.43;5.43;;;13.20;99.90;;;;;;6041986;23;20041;-85
2022/10/01 07:27:47;;;;;;;9.98;5.32;;;13.20;99.90;;;;;;6020584;23;20414;-86
2022/10/01 07:30:13;;;;;;;11.05;5.05;;;13.10;99.90;;;;;;6018055;23;20057;-86
2022/10/01 07:32:42;;;;;;;13.38;5.05;;;13.10;99.90;;;;;;6020367;23;20022;-85
2022/10/01 07:35:08;;;;;;;10.55;5.57;;;13.10;99.90;;;;;;6043137;23;20018;-86
2022/10/01 07:37:33;;;;;;;13.05;5.55;;;13.10;99.90;;;;;;6042958;23;20389;-86
2022/10/01 07:39:59;;;;;;;13.23;5.32;;;13.10;99.90;;;;;;6042166;23;20138;-86
2022/10/01 07:42:26;;;;;;;15.68;6.32;;;13.20;99.90;;;;;;6018106;23;20018;-85
2022/10/01 07:44:52;;;;;;;11.70;5.75;;;13.40;99.90;;;;;;6041451;23;20017;-85
2022/10/01 07:47:18;;;;;;;12.38;5.32;;;13.20;99.90;;;;;;6066117;23;20528;-86
2022/10/01 07:49:43;;;;;;;13.05;5.05;;;13.20;99.90;;;;;;6019300;23;20046;-86
2022/10/01 07:52:09;;;;;;;17.10;6.03;;;13.20;99.90;;;;;;6043327;23;20006;-85
2022/10/01 07:54:35;;;;;;;12.75;4.72;;;13.30;99.90;;;;;;6065479;23;20069;-86
2022/10/01 07:57:00;;;;;;;13.93;5.07;;;13.40;99.90;;;;;;6041492;23;20014;-85
2022/10/01 07:59:26;;;;;;;11.93;4.38;;;13.50;99.90;;;;;;6040760;23;20128;-85
2022/10/01 08:01:52;;;;;;;10.68;3.95;;;13.60;99.90;;;;;;6066516;23;20014;-85
2022/10/01 08:07:04;;;;;;;13.35;3.70;;;13.80;99.90;;;;;;6063613;23;20080;-86
2022/10/01 08:09:30;;;;;;;11.95;3.58;;;13.90;99.90;;;;;;6043101;23;20018;-86
2022/10/01 08:11:56;;;;;;;10.68;3.47;;;14.00;99.90;;;;;;6065732;23;20040;-86
2022/10/01 08:14:21;;;;;;;10.88;3.35;;;14.10;99.90;;;;;;6016675;23;20018;-86
2022/10/01 08:16:47;;;;;;;10.77;2.83;;;14.20;99.90;;;;;;6042685;23;20045;-86
2022/10/01 08:19:14;;;;;;;10.93;2.80;;;14.20;99.90;;;;;;6042179;23;20077;-85
2022/10/01 08:21:40;;;;;;;11.57;2.90;;;14.30;99.90;;;;;;6041574;23;20018;-85
2022/10/01 08:24:06;;;;;;;11.70;2.72;;;14.40;99.90;;;;;;6042313;23;20025;-84
2022/10/01 08:26:32;;;;;;;10.93;2.85;;;14.50;99.90;;;;;;6042038;23;20015;-85
2022/10/01 08:28:58;;;;;;;13.18;2.92;;;14.50;99.90;;;;;;6041703;23;20093;-86
2022/10/01 08:31:24;;;;;;;14.60;3.08;;;14.60;99.90;;;;;;6065542;23;20439;-86
2022/10/01 08:33:50;;;;;;;10.75;2.60;;;14.70;99.90;;;;;;6040470;23;20061;-86
2022/10/01 08:36:18;;;;;;;12.50;3.13;;;14.80;99.90;;;;;;6063351;23;20018;-85
2022/10/01 08:38:45;;;;;;;13.52;2.88;;;14.80;99.90;;;;;;6065800;23;20409;-84
2022/10/01 08:41:53;;;;;;;9.95;2.70;;;14.90;99.90;;;;;;6043035;23;20012;-86
2022/10/01 08:44:29;;;;;;;10.32;2.60;;;15.00;99.90;;;;;;6006006;23;20034;-86
2022/10/01 08:47:15;;;;;;;12.05;2.85;;;15.10;99.90;;;;;;6043714;23;20050;-85
2022/10/01 08:49:47;;;;;;;10.40;2.67;;;15.10;99.90;;;;;;6042702;23;20015;-85
2022/10/01 08:52:21;;;;;;;11.15;2.63;;;15.20;99.90;;;;;;6044120;23;20258;-85
2022/10/01 08:55:16;;;;;;;12.57;3.17;;;15.30;99.90;;;;;;6066863;23;20018;-87
2022/10/01 08:57:48;;;;;;;13.02;2.50;;;15.40;99.90;;;;;;6043666;23;20022;-86
2022/10/01 09:00:16;;;;;;;12.48;2.60;;;15.50;99.90;;;;;;6042446;23;20452;-85
2022/10/01 09:02:45;;;;;;;12.95;2.83;;;15.60;99.90;;;;;;6043896;23;20021;-86
2022/10/01 09:05:34;;;;;;;12.77;2.22;;;15.80;99.90;;;;;;6067640;23;20019;-86
2022/10/01 09:08:42;;;;;;;12.77;2.63;;;15.90;99.90;;;;;;6043496;23;20029;-85
2022/10/01 09:11:20;;;;;;;10.48;2.45;;;16.10;99.90;;;;;;6066528;23;20015;-86
2022/10/01 09:13:53;;;;;;;15.07;2.97;;;16.30;99.90;;;;;;6043549;23;20025;-85
2022/10/01 09:16:40;;;;;;;12.60;2.42;;;16.40;99.90;;;;;;6067437;23;20018;-85
2022/10/01 09:19:17;;;;;;;11.05;2.58;;;16.50;99.90;;;;;;6067306;23;20010;-86
2022/10/01 09:21:49;;;;;;;13.02;2.65;;;16.60;99.90;;;;;;6042564;23;20073;-86
2022/10/01 09:24:21;;;;;;;14.13;2.40;;;16.60;99.90;;;;;;6042958;23;20022;-86
2022/10/01 09:26:47;;;;;;;12.23;2.33;;;16.70;99.90;;;;;;6067450;23;20022;-86
2022/10/01 09:29:22;;;;;;;13.52;2.88;;;16.80;99.90;;;;;;6020232;23;20025;-86
2022/10/01 09:31:51;;;;;;;12.27;2.80;;;16.80;99.90;;;;;;6043426;23;20074;-85
2022/10/01 09:34:32;;;;;;;11.57;2.53;;;16.70;99.90;;;;;;6044459;23;20050;-86
2022/10/01 09:37:23;;;;;;;13.45;2.45;;;16.60;99.90;;;;;;6044943;23;20041;-86
2022/10/01 09:39:51;;;;;;;12.40;2.65;;;16.60;99.90;;;;;;6068970;23;20017;-87
2022/10/01 09:42:17;;;;;;;15.02;3.03;;;16.50;99.90;;;;;;6044673;23;20011;-88
2022/10/01 09:44:45;;;;;;;10.10;2.08;;;16.50;99.90;;;;;;6044802;23;20089;-86
2022/10/01 09:47:19;;;;;;;11.07;2.35;;;16.40;99.90;;;;;;6022357;23;20014;-86
2022/10/01 09:49:47;;;;;;;12.68;2.72;;;16.50;99.90;;;;;;6068829;23;20080;-86
2022/10/01 09:52:23;;;;;;;11.73;2.10;;;16.50;99.90;;;;;;6044388;23;20014;-85
2022/10/01 09:55:08;;;;;;;8.93;2.03;;;16.30;99.90;;;;;;6044578;23;20021;-85
2022/10/01 09:57:36;;;;;;;10.73;2.30;;;16.20;99.90;;;;;;6068795;23;20038;-86
2022/10/01 10:00:06;;;;;;;13.95;2.58;;;16.20;99.90;;;;;;6068093;23;20018;-85
2022/10/01 10:02:39;;;;;;;13.13;2.60;;;16.10;99.90;;;;;;6068597;23;20014;-86
2022/10/01 10:05:33;;;;;;;13.52;2.33;;;16.00;99.90;;;;;;6069311;23;20340;-85
2022/10/01 10:07:58;;;;;;;;;;;15.90;99.90;;;;;;6025469;23;20382;-85
2022/10/01 10:10:34;;;;;;;12.10;2.45;;;15.80;99.90;;;;;;6068461;23;19968;-86
2022/10/01 10:13:04;;;;;;;12.45;2.28;;;15.70;99.90;;;;;;6044261;23;20345;-86
2022/10/01 10:15:31;;;;;;;11.27;2.40;;;15.60;99.90;;;;;;6044588;23;20029;-88
2022/10/01 10:18:05;;;;;;;10.13;2.15;;;15.50;99.90;;;;;;6021550;23;20011;-86
2022/10/01 10:20:40;;;;;;;9.52;1.90;;;15.30;99.90;;;;;;6044442;23;20322;-86
2022/10/01 10:23:08;;;;;;;9.50;1.88;;;15.20;99.90;;;;;;6068400;23;20021;-86
2022/10/01 10:25:33;;;;;;;10.00;2.42;;;15.00;99.90;;;;;;6044617;23;20499;-86
2022/10/01 10:28:01;;;;;;;10.35;2.08;;;14.90;99.90;;;;;;6020781;23;20014;-87
2022/10/01 10:30:27;;;;;;;10.13;2.10;;;14.70;99.90;;;;;;6044132;23;20025;-87
2022/10/01 10:33:02;;;;;;;8.05;1.98;;;14.60;99.90;;;;;;6068540;23;20022;-85
2022/10/01 10:35:28;;;;;;;11.07;2.53;;;14.40;99.90;;;;;;6045123;23;20360;-86
2022/10/01 10:38:00;;;;;;;8.27;2.00;;;14.30;99.90;;;;;;6044404;23;20341;-85
2022/10/01 10:40:46;;;;;;;10.57;2.05;;;14.20;99.90;;;;;;6044627;23;20017;-85
2022/10/01 10:43:24;;;;;;;10.40;2.20;;;14.10;99.90;;;;;;6044531;23;20397;-85
2022/10/01 10:45:55;;;;;;;8.00;2.05;;;14.00;99.90;;;;;;6068301;23;20021;-86
2022/10/01 10:48:34;;;;;;;8.77;2.00;;;13.90;99.90;;;;;;6043764;23;20104;-86
2022/10/01 10:51:03;;;;;;;10.25;1.95;;;13.80;99.90;;;;;;6067871;23;20093;-85
2022/10/01 10:53:39;;;;;;;11.35;2.40;;;13.80;99.90;;;;;;6044344;23;20010;-86
2022/10/01 10:56:06;;;;;;;9.93;2.00;;;13.80;99.90;;;;;;6044531;23;20014;-86
2022/10/01 10:58:39;;;;;;;6.18;1.63;;;13.80;99.90;;;;;;6020635;23;20014;-85
2022/10/01 11:01:15;;;;;;;7.93;1.85;;;13.80;99.90;;;;;;6043414;23;20097;-86
2022/10/01 11:03:48;;;;;;;5.68;1.42;;;13.80;99.90;;;;;;6043600;23;20010;-85
2022/10/01 11:06:17;;;;;;;7.88;1.65;;;13.90;99.90;;;;;;6044995;23;20415;-86
2022/10/01 11:08:44;;;;;;;6.60;1.60;;;14.00;99.90;;;;;;6092226;23;20018;-86
2022/10/01 11:11:33;;;;;;;7.22;1.70;;;14.00;99.90;;;;;;6044358;23;20015;-86
2022/10/01 11:14:08;;;;;;;6.35;1.58;;;14.10;99.90;;;;;;6067530;23;20348;-86
2022/10/01 11:16:33;;;;;;;5.50;1.50;;;14.20;99.90;;;;;;6044712;23;20022;-86
2022/10/01 11:19:14;;;;;;;6.43;1.50;;;14.30;99.90;;;;;;6068406;23;20471;-85
2022/10/01 11:22:03;;;;;;;7.70;1.70;;;14.40;99.90;;;;;;6043993;23;20011;-86
2022/10/01 11:24:47;;;;;;;10.45;1.50;;;14.30;99.90;;;;;;5978604;23;20010;-86
2022/10/01 11:27:47;;;;;;;6.60;1.42;;;14.30;99.90;;;;;;6068102;23;20380;-86
2022/10/01 11:30:19;;;;;;;9.98;1.92;;;14.30;99.90;;;;;;6042706;23;20356;-87
2022/10/01 11:32:49;;;;;;;6.18;1.42;;;14.40;99.90;;;;;;6044192;23;20456;-86
2022/10/01 11:35:42;;;;;;;7.97;1.50;;;14.60;99.90;;;;;;6044022;23;20151;-86
2022/10/01 11:38:22;;;;;;;7.25;1.80;;;14.70;99.90;;;;;;6044320;23;20010;-85
2022/10/01 11:41:13;;;;;;;6.90;1.67;;;15.00;99.90;;;;;;6044009;23;20018;-85
2022/10/01 11:43:43;;;;;;;7.18;1.58;;;15.00;99.90;;;;;;6043434;23;20025;-86
2022/10/01 11:46:16;;;;;;;7.72;1.70;;;15.10;99.90;;;;;;6067549;23;20022;-85
2022/10/01 11:48:51;;;;;;;5.60;1.48;;;15.30;99.90;;;;;;6043825;23;20018;-85
2022/10/01 11:51:24;;;;;;;6.82;1.60;;;15.40;99.90;;;;;;6067837;23;20022;-87
2022/10/01 11:54:05;;;;;;;9.57;1.60;;;15.50;99.90;;;;;;6043580;23;20013;-85
2022/10/01 11:59:32;;;;;;;6.85;1.60;;;15.60;99.90;;;;;;6067057;23;20080;-85
2022/10/01 12:02:06;;;;;;;9.15;1.70;;;15.60;99.90;;;;;;6041007;23;20019;-86
2022/10/01 12:04:46;;;;;;;8.88;1.90;;;15.70;99.90;;;;;;6042225;23;20025;-85
2022/10/01 12:07:22;;;;;;;7.53;1.60;;;15.70;99.90;;;;;;6043170;23;20014;-86
2022/10/01 12:10:01;;;;;;;12.38;2.33;;;15.70;99.90;;;;;;6089470;23;20015;-85
2022/10/01 12:12:35;;;;;;;12.50;2.60;;;15.70;99.90;;;;;;6038457;23;20046;-87
2022/10/01 12:15:30;;;;;;;12.70;2.53;;;15.80;99.90;;;;;;6036616;23;20022;-85
2022/10/01 12:18:07;;;;;;;11.73;2.67;;;15.80;99.90;;;;;;6059728;23;20440;-85
2022/10/01 12:20:47;;;;;;;11.40;2.35;;;15.80;99.90;;;;;;6040903;23;20014;-86
2022/10/01 12:23:19;;;;;;;11.43;2.20;;;15.80;99.90;;;;;;6041749;23;20026;-85
2022/10/01 12:26:09;;;;;;;14.77;2.30;;;15.80;99.90;;;;;;6041642;23;20014;-86
2022/10/01 12:28:53;;;;;;;12.30;2.30;;;15.80;99.90;;;;;;6065338;23;20015;-85
2022/10/01 12:31:27;;;;;;;12.25;2.90;;;15.90;99.90;;;;;;6036987;23;20292;-86
2022/10/01 12:34:02;;;;;;;13.88;2.47;;;16.00;99.90;;;;;;6041081;23;20469;-85
2022/10/01 12:36:44;;;;;;;12.27;2.80;;;16.20;99.90;;;;;;6042467;23;20090;-84
2022/10/01 12:39:38;;;;;;;16.83;2.80;;;16.40;99.90;;;;;;6044077;23;20011;-87
2022/10/01 12:42:13;;;;;;;11.18;2.20;;;16.40;99.90;;;;;;6067846;23;20014;-86
2022/10/01 12:44:56;;;;;;;9.38;2.03;;;16.30;99.90;;;;;;6042135;23;20015;-87
2022/10/01 12:47:41;;;;;;;10.73;2.00;;;16.30;99.90;;;;;;6040190;23;20221;-87
2022/10/01 12:50:16;;;;;;;9.85;1.98;;;16.20;99.90;;;;;;6042561;23;20014;-88
2022/10/01 12:52:58;;;;;;;10.63;2.00;;;16.10;99.90;;;;;;6065662;23;20074;-86
2022/10/01 12:55:42;;;;;;;10.70;2.17;;;16.20;99.90;;;;;;6040667;23;20100;-87
2022/10/01 12:58:42;;;;;;;12.18;2.00;;;16.30;99.90;;;;;;6063940;23;20021;-87
2022/10/01 13:01:50;;;;;;;10.40;2.25;;;16.40;99.90;;;;;;6041689;23;20014;-88
2022/10/01 13:04:26;;;;;;;10.60;2.33;;;16.40;99.90;;;;;;6063942;23;20015;-87
2022/10/01 13:07:01;;;;;;;10.48;2.00;;;16.30;99.90;;;;;;6041494;23;20022;-87
2022/10/01 13:09:30;;;;;;;10.23;2.25;;;16.10;99.90;;;;;;6041869;23;20107;-86